sensor_id;sensor_type;location;lat;lon;timestamp;temperature;humidity
8965;DHT22;4517;49.020;12.066;2022-10-31T00:00:48;8.30;99.90
8965;DHT22;4517;49.020;12.066;2022-10-31T00:03:14;8.40;99.90
8965;DHT22;4517;49.020;12.066;2022-10-31T00:05:45;8.50;99.90
8965;DHT22;4517;49.020;12.066;2022-10-31T00:08:10;8.60;99.90
8965;DHT22;4517;49.020;12.066;2022-10-31T00:10:43;8.60;99.90
8965;DHT22;4517;49.020;12.066;2022-10-31T00:13:09;8.60;99.90
8965;DHT22;4517;49.020;12.066;2022-10-31T00:15:36;8.60;99.90
8965;DHT22;4517;49.020;12.066;2022-10-31T00:18:03;8.50;99.90
8965;DHT22;4517;49.020;12.066;2022-10-31T00:20:29;8.40;99.90
8965;DHT22;4517;49.020;12.066;2022-10-31T00:22:58;8.30;99.90
8965;DHT22;4517;49.020;12.066;2022-10-31T00:25:24;8.30;99.90
8965;DHT22;4517;49.020;12.066;2022-10-31T00:27:49;8.20;99.90
8965;DHT22;4517;49.020;12.066;2022-10-31T00:30:15;8.20;99.90
8965;DHT22;4517;49.020;12.066;2022-10-31T00:32:40;8.20;99.90
8965;DHT22;4517;49.020;12.066;2022-10-31T00:35:06;8.20;99.90
8965;DHT22;4517;49.020;12.066;2022-10-31T00:37:32;8.10;99.90
8965;DHT22;4517;49.020;12.066;2022-10-31T00:39:57;8.10;99.90
8965;DHT22;4517;49.020;12.066;2022-10-31T00:42:23;8.00;99.90
8965;DHT22;4517;49.020;12.066;2022-10-31T00:44:48;8.00;99.90
8965;DHT22;4517;49.020;12.066;2022-10-31T00:47:14;8.00;99.90
8965;DHT22;4517;49.020;12.066;2022-10-31T00:49:39;8.00;99.90
8965;DHT22;4517;49.020;12.066;2022-10-31T00:52:05;8.00;99.90
8965;DHT22;4517;49.020;12.066;2022-10-31T00:54:30;7.90;99.90
8965;DHT22;4517;49.020;12.066;2022-10-31T00:56:56;7.90;99.90
8965;DHT22;4517;49.020;12.066;2022-10-31T00:59:22;7.90;99.90
8965;DHT22;4517;49.020;12.066;2022-10-31T01:01:48;8.00;99.90
8965;DHT22;4517;49.020;12.066;2022-10-31T01:04:13;8.00;99.90
8965;DHT22;4517;49.020;12.066;2022-10-31T01:06:39;8.20;99.90
8965;DHT22;4517;49.020;12.066;2022-10-31T01:09:04;8.20;99.90
8965;DHT22;4517;49.020;12.066;2022-10-31T01:11:30;8.10;99.90
8965;DHT22;4517;49.020;12.066;2022-10-31T01:13:56;8.10;99.90
8965;DHT22;4517;49.020;12.066;2022-10-31T01:16:23;8.10;99.90
8965;DHT22;4517;49.020;12.066;2022-10-31T01:18:50;8.00;99.90
8965;DHT22;4517;49.020;12.066;2022-10-31T01:21:18;7.90;99.90
8965;DHT22;4517;49.020;12.066;2022-10-31T01:23:44;7.80;99.90
8965;DHT22;4517;49.020;12.066;2022-10-31T01:26:15;7.80;99.90
8965;DHT22;4517;49.020;12.066;2022-10-31T01:28:57;7.70;99.90
8965;DHT22;4517;49.020;12.066;2022-10-31T01:31:24;7.60;99.90
8965;DHT22;4517;49.020;12.066;2022-10-31T01:33:50;7.60;99.90
8965;DHT22;4517;49.020;12.066;2022-10-31T01:38:45;7.60;99.90
8965;DHT22;4517;49.020;12.066;2022-10-31T01:41:12;7.60;99.90
8965;DHT22;4517;49.020;12.066;2022-10-31T01:46:16;7.60;99.90
8965;DHT22;4517;49.020;12.066;2022-10-31T01:48:42;7.60;99.90
8965;DHT22;4517;49.020;12.066;2022-10-31T01:51:10;7.60;99.90
8965;DHT22;4517;49.020;12.066;2022-10-31T01:53:38;7.70;99.90
8965;DHT22;4517;49.020;12.066;2022-10-31T01:56:05;7.60;99.90
8965;DHT22;4517;49.020;12.066;2022-10-31T01:58:31;7.60;99.90
8965;DHT22;4517;49.020;12.066;2022-10-31T02:00:59;7.70;99.90
8965;DHT22;4517;49.020;12.066;2022-10-31T02:03:25;7.70;99.90
8965;DHT22;4517;49.020;12.066;2022-10-31T02:05:53;7.70;99.90
8965;DHT22;4517;49.020;12.066;2022-10-31T02:08:24;7.90;99.90
8965;DHT22;4517;49.020;12.066;2022-10-31T02:10:52;8.00;99.90
8965;DHT22;4517;49.020;12.066;2022-10-31T02:13:18;8.10;99.90
8965;DHT22;4517;49.020;12.066;2022-10-31T02:15:48;8.20;99.90
8965;DHT22;4517;49.020;12.066;2022-10-31T02:18:15;8.30;99.90
8965;DHT22;4517;49.020;12.066;2022-10-31T02:29:36;8.60;99.90
8965;DHT22;4517;49.020;12.066;2022-10-31T02:35:13;8.70;99.90
8965;DHT22;4517;49.020;12.066;2022-10-31T02:37:56;8.70;99.90
8965;DHT22;4517;49.020;12.066;2022-10-31T02:40:30;8.70;99.90
8965;DHT22;4517;49.020;12.066;2022-10-31T02:45:44;8.70;99.90
8965;DHT22;4517;49.020;12.066;2022-10-31T02:48:18;8.70;99.90
8965;DHT22;4517;49.020;12.066;2022-10-31T02:50:52;8.80;99.90
8965;DHT22;4517;49.020;12.066;2022-10-31T02:53:17;8.70;99.90
8965;DHT22;4517;49.020;12.066;2022-10-31T02:56:12;8.70;99.90
8965;DHT22;4517;49.020;12.066;2022-10-31T02:58:42;8.70;99.90
8965;DHT22;4517;49.020;12.066;2022-10-31T03:06:50;8.70;99.90
8965;DHT22;4517;49.020;12.066;2022-10-31T03:12:11;8.70;99.90
8965;DHT22;4517;49.020;12.066;2022-10-31T03:14:56;8.70;99.90
8965;DHT22;4517;49.020;12.066;2022-10-31T03:17:34;8.70;99.90
8965;DHT22;4517;49.020;12.066;2022-10-31T03:20:04;8.80;99.90
8965;DHT22;4517;49.020;12.066;2022-10-31T03:22:32;8.80;99.90
8965;DHT22;4517;49.020;12.066;2022-10-31T03:25:00;8.80;99.90
8965;DHT22;4517;49.020;12.066;2022-10-31T03:27:29;8.80;99.90
8965;DHT22;4517;49.020;12.066;2022-10-31T03:29:58;8.80;99.90
8965;DHT22;4517;49.020;12.066;2022-10-31T03:32:36;8.80;99.90
8965;DHT22;4517;49.020;12.066;2022-10-31T03:35:05;8.80;99.90
8965;DHT22;4517;49.020;12.066;2022-10-31T03:37:34;8.70;99.90
8965;DHT22;4517;49.020;12.066;2022-10-31T03:40:02;8.70;99.90
8965;DHT22;4517;49.020;12.066;2022-10-31T03:42:32;8.70;99.90
8965;DHT22;4517;49.020;12.066;2022-10-31T03:45:04;8.80;99.90
8965;DHT22;4517;49.020;12.066;2022-10-31T03:47:31;8.90;99.90
8965;DHT22;4517;49.020;12.066;2022-10-31T03:49:57;8.80;99.90
8965;DHT22;4517;49.020;12.066;2022-10-31T03:52:35;8.70;99.90
8965;DHT22;4517;49.020;12.066;2022-10-31T03:55:13;8.70;99.90
8965;DHT22;4517;49.020;12.066;2022-10-31T03:57:48;8.70;99.90
8965;DHT22;4517;49.020;12.066;2022-10-31T04:00:16;8.70;99.90
8965;DHT22;4517;49.020;12.066;2022-10-31T04:03:01;8.70;99.90
8965;DHT22;4517;49.020;12.066;2022-10-31T04:05:29;8.70;99.90
8965;DHT22;4517;49.020;12.066;2022-10-31T04:07:57;8.70;99.90
8965;DHT22;4517;49.020;12.066;2022-10-31T04:10:24;8.70;99.90
8965;DHT22;4517;49.020;12.066;2022-10-31T04:12:56;8.70;99.90
8965;DHT22;4517;49.020;12.066;2022-10-31T04:15:23;8.70;99.90
8965;DHT22;4517;49.020;12.066;2022-10-31T04:17:52;8.70;99.90
8965;DHT22;4517;49.020;12.066;2022-10-31T04:20:32;8.80;99.90
8965;DHT22;4517;49.020;12.066;2022-10-31T04:22:59;8.80;99.90
8965;DHT22;4517;49.020;12.066;2022-10-31T04:25:25;8.80;99.90
8965;DHT22;4517;49.020;12.066;2022-10-31T04:27:51;8.80;99.90
8965;DHT22;4517;49.020;12.066;2022-10-31T04:30:16;8.90;99.90
8965;DHT22;4517;49.020;12.066;2022-10-31T04:32:42;8.90;99.90
8965;DHT22;4517;49.020;12.066;2022-10-31T04:35:07;8.90;99.90
8965;DHT22;4517;49.020;12.066;2022-10-31T04:37:33;8.90;99.90
8965;DHT22;4517;49.020;12.066;2022-10-31T04:39:58;8.90;99.90
8965;DHT22;4517;49.020;12.066;2022-10-31T04:42:24;8.90;99.90
8965;DHT22;4517;49.020;12.066;2022-10-31T04:44:49;8.90;99.90
8965;DHT22;4517;49.020;12.066;2022-10-31T04:47:15;8.90;99.90
8965;DHT22;4517;49.020;12.066;2022-10-31T04:49:40;8.90;99.90
8965;DHT22;4517;49.020;12.066;2022-10-31T04:52:06;8.90;99.90
8965;DHT22;4517;49.020;12.066;2022-10-31T04:54:33;8.90;99.90
8965;DHT22;4517;49.020;12.066;2022-10-31T04:56:59;8.90;99.90
8965;DHT22;4517;49.020;12.066;2022-10-31T04:59:24;8.90;99.90
8965;DHT22;4517;49.020;12.066;2022-10-31T05:01:50;8.90;99.90
8965;DHT22;4517;49.020;12.066;2022-10-31T05:04:15;8.90;99.90
8965;DHT22;4517;49.020;12.066;2022-10-31T05:06:41;8.80;99.90
8965;DHT22;4517;49.020;12.066;2022-10-31T05:09:06;8.80;99.90
8965;DHT22;4517;49.020;12.066;2022-10-31T05:11:32;8.70;99.90
8965;DHT22;4517;49.020;12.066;2022-10-31T05:13:57;8.60;99.90
8965;DHT22;4517;49.020;12.066;2022-10-31T05:16:23;8.60;99.90
8965;DHT22;4517;49.020;12.066;2022-10-31T05:18:48;8.60;99.90
8965;DHT22;4517;49.020;12.066;2022-10-31T05:21:14;8.60;99.90
8965;DHT22;4517;49.020;12.066;2022-10-31T05:23:39;8.50;99.90
8965;DHT22;4517;49.020;12.066;2022-10-31T05:26:05;8.50;99.90
8965;DHT22;4517;49.020;12.066;2022-10-31T05:28:30;8.50;99.90
8965;DHT22;4517;49.020;12.066;2022-10-31T05:30:56;8.50;99.90
8965;DHT22;4517;49.020;12.066;2022-10-31T05:33:21;8.40;99.90
8965;DHT22;4517;49.020;12.066;2022-10-31T05:35:47;8.30;99.90
8965;DHT22;4517;49.020;12.066;2022-10-31T05:38:13;8.20;99.90
8965;DHT22;4517;49.020;12.066;2022-10-31T05:40:38;8.10;99.90
8965;DHT22;4517;49.020;12.066;2022-10-31T05:43:04;8.00;99.90
8965;DHT22;4517;49.020;12.066;2022-10-31T05:45:29;8.10;99.90
8965;DHT22;4517;49.020;12.066;2022-10-31T05:47:57;8.00;99.90
8965;DHT22;4517;49.020;12.066;2022-10-31T05:50:23;8.00;99.90
8965;DHT22;4517;49.020;12.066;2022-10-31T05:53:00;7.90;99.90
8965;DHT22;4517;49.020;12.066;2022-10-31T05:55:27;7.90;99.90
8965;DHT22;4517;49.020;12.066;2022-10-31T05:57:54;7.90;99.90
8965;DHT22;4517;49.020;12.066;2022-10-31T06:00:20;7.90;99.90
8965;DHT22;4517;49.020;12.066;2022-10-31T06:02:46;7.90;99.90
8965;DHT22;4517;49.020;12.066;2022-10-31T06:05:12;7.90;99.90
8965;DHT22;4517;49.020;12.066;2022-10-31T06:07:38;8.00;99.90
8965;DHT22;4517;49.020;12.066;2022-10-31T06:10:05;8.00;99.90
8965;DHT22;4517;49.020;12.066;2022-10-31T06:12:31;8.00;99.90
8965;DHT22;4517;49.020;12.066;2022-10-31T06:14:57;8.00;99.90
8965;DHT22;4517;49.020;12.066;2022-10-31T06:17:23;8.10;99.90
8965;DHT22;4517;49.020;12.066;2022-10-31T06:19:48;8.10;99.90
8965;DHT22;4517;49.020;12.066;2022-10-31T06:22:14;8.20;99.90
8965;DHT22;4517;49.020;12.066;2022-10-31T06:24:39;8.20;99.90
8965;DHT22;4517;49.020;12.066;2022-10-31T06:27:05;8.20;99.90
8965;DHT22;4517;49.020;12.066;2022-10-31T06:29:31;8.20;99.90
8965;DHT22;4517;49.020;12.066;2022-10-31T06:31:57;8.30;99.90
8965;DHT22;4517;49.020;12.066;2022-10-31T06:34:23;8.30;99.90
8965;DHT22;4517;49.020;12.066;2022-10-31T06:36:48;8.30;99.90
8965;DHT22;4517;49.020;12.066;2022-10-31T06:39:14;8.30;99.90
8965;DHT22;4517;49.020;12.066;2022-10-31T06:41:40;8.30;99.90
8965;DHT22;4517;49.020;12.066;2022-10-31T06:44:07;8.40;99.90
8965;DHT22;4517;49.020;12.066;2022-10-31T06:46:33;8.50;99.90
8965;DHT22;4517;49.020;12.066;2022-10-31T06:48:59;8.50;99.90
8965;DHT22;4517;49.020;12.066;2022-10-31T06:51:24;8.60;99.90
8965;DHT22;4517;49.020;12.066;2022-10-31T06:53:50;8.70;99.90
8965;DHT22;4517;49.020;12.066;2022-10-31T06:56:15;8.80;99.90
8965;DHT22;4517;49.020;12.066;2022-10-31T06:58:41;8.70;99.90
8965;DHT22;4517;49.020;12.066;2022-10-31T07:01:06;8.80;99.90
8965;DHT22;4517;49.020;12.066;2022-10-31T07:03:32;8.80;99.90
8965;DHT22;4517;49.020;12.066;2022-10-31T07:05:57;8.80;99.90
8965;DHT22;4517;49.020;12.066;2022-10-31T07:08:24;8.90;99.90
8965;DHT22;4517;49.020;12.066;2022-10-31T07:10:54;8.90;99.90
8965;DHT22;4517;49.020;12.066;2022-10-31T07:13:20;9.00;99.90
8965;DHT22;4517;49.020;12.066;2022-10-31T07:15:55;9.10;99.90
8965;DHT22;4517;49.020;12.066;2022-10-31T07:18:24;9.20;99.90
8965;DHT22;4517;49.020;12.066;2022-10-31T07:20:49;9.20;99.90
8965;DHT22;4517;49.020;12.066;2022-10-31T07:23:16;9.30;99.90
8965;DHT22;4517;49.020;12.066;2022-10-31T07:25:42;9.40;99.90
8965;DHT22;4517;49.020;12.066;2022-10-31T07:28:08;9.50;99.90
8965;DHT22;4517;49.020;12.066;2022-10-31T07:30:34;9.40;99.90
8965;DHT22;4517;49.020;12.066;2022-10-31T07:32:59;9.50;99.90
8965;DHT22;4517;49.020;12.066;2022-10-31T07:35:27;9.50;99.90
8965;DHT22;4517;49.020;12.066;2022-10-31T07:37:53;9.50;99.90
8965;DHT22;4517;49.020;12.066;2022-10-31T07:40:20;9.50;99.90
8965;DHT22;4517;49.020;12.066;2022-10-31T07:42:47;9.50;99.90
8965;DHT22;4517;49.020;12.066;2022-10-31T07:45:16;9.50;99.90
8965;DHT22;4517;49.020;12.066;2022-10-31T07:47:47;9.70;99.90
8965;DHT22;4517;49.020;12.066;2022-10-31T07:50:15;9.70;99.90
8965;DHT22;4517;49.020;12.066;2022-10-31T07:52:41;9.60;99.90
8965;DHT22;4517;49.020;12.066;2022-10-31T07:55:07;9.60;99.90
8965;DHT22;4517;49.020;12.066;2022-10-31T07:57:33;9.80;99.90
8965;DHT22;4517;49.020;12.066;2022-10-31T07:59:58;9.70;99.90
8965;DHT22;4517;49.020;12.066;2022-10-31T08:02:24;9.80;99.90
8965;DHT22;4517;49.020;12.066;2022-10-31T08:04:50;9.90;99.90
8965;DHT22;4517;49.020;12.066;2022-10-31T08:07:17;9.90;99.90
8965;DHT22;4517;49.020;12.066;2022-10-31T08:09:42;9.80;99.90
8965;DHT22;4517;49.020;12.066;2022-10-31T08:12:08;9.70;99.90
8965;DHT22;4517;49.020;12.066;2022-10-31T08:14:33;9.80;99.90
8965;DHT22;4517;49.020;12.066;2022-10-31T08:16:59;10.00;99.90
8965;DHT22;4517;49.020;12.066;2022-10-31T08:19:24;10.20;99.90
8965;DHT22;4517;49.020;12.066;2022-10-31T08:21:51;10.20;99.90
8965;DHT22;4517;49.020;12.066;2022-10-31T08:24:17;10.30;99.90
8965;DHT22;4517;49.020;12.066;2022-10-31T08:26:43;10.00;99.90
8965;DHT22;4517;49.020;12.066;2022-10-31T08:29:08;10.10;99.90
8965;DHT22;4517;49.020;12.066;2022-10-31T08:31:34;10.20;99.90
8965;DHT22;4517;49.020;12.066;2022-10-31T08:33:59;10.30;99.90
8965;DHT22;4517;49.020;12.066;2022-10-31T08:36:26;10.40;99.90
8965;DHT22;4517;49.020;12.066;2022-10-31T08:38:52;10.50;99.90
8965;DHT22;4517;49.020;12.066;2022-10-31T08:41:17;10.70;99.90
8965;DHT22;4517;49.020;12.066;2022-10-31T08:43:43;10.60;99.90
8965;DHT22;4517;49.020;12.066;2022-10-31T08:46:08;10.60;99.90
8965;DHT22;4517;49.020;12.066;2022-10-31T08:48:34;10.50;99.90
8965;DHT22;4517;49.020;12.066;2022-10-31T08:50:59;10.50;99.90
8965;DHT22;4517;49.020;12.066;2022-10-31T08:53:26;10.50;99.90
8965;DHT22;4517;49.020;12.066;2022-10-31T08:55:54;10.70;99.90
8965;DHT22;4517;49.020;12.066;2022-10-31T08:58:20;11.00;99.90
8965;DHT22;4517;49.020;12.066;2022-10-31T09:00:48;11.10;99.90
8965;DHT22;4517;49.020;12.066;2022-10-31T09:03:25;11.10;99.90
8965;DHT22;4517;49.020;12.066;2022-10-31T09:05:55;11.20;99.90
8965;DHT22;4517;49.020;12.066;2022-10-31T09:08:21;11.40;99.90
8965;DHT22;4517;49.020;12.066;2022-10-31T09:10:46;11.40;99.90
8965;DHT22;4517;49.020;12.066;2022-10-31T09:13:14;11.50;99.90
8965;DHT22;4517;49.020;12.066;2022-10-31T09:15:42;11.60;99.90
8965;DHT22;4517;49.020;12.066;2022-10-31T09:18:09;11.80;99.90
8965;DHT22;4517;49.020;12.066;2022-10-31T09:20:36;11.70;99.90
8965;DHT22;4517;49.020;12.066;2022-10-31T09:23:08;11.80;99.90
8965;DHT22;4517;49.020;12.066;2022-10-31T09:25:34;12.10;99.90
8965;DHT22;4517;49.020;12.066;2022-10-31T09:28:02;12.10;99.90
8965;DHT22;4517;49.020;12.066;2022-10-31T09:30:31;12.20;99.90
8965;DHT22;4517;49.020;12.066;2022-10-31T09:33:05;12.40;99.90
8965;DHT22;4517;49.020;12.066;2022-10-31T09:35:31;12.50;99.90
8965;DHT22;4517;49.020;12.066;2022-10-31T09:37:58;12.40;99.90
8965;DHT22;4517;49.020;12.066;2022-10-31T09:40:41;12.10;99.90
8965;DHT22;4517;49.020;12.066;2022-10-31T09:43:25;12.10;99.90
8965;DHT22;4517;49.020;12.066;2022-10-31T09:51:20;12.40;99.90
8965;DHT22;4517;49.020;12.066;2022-10-31T09:56:35;12.70;99.90
8965;DHT22;4517;49.020;12.066;2022-10-31T09:59:04;12.80;99.90
8965;DHT22;4517;49.020;12.066;2022-10-31T10:01:39;12.50;99.90
8965;DHT22;4517;49.020;12.066;2022-10-31T10:04:39;12.70;99.90
8965;DHT22;4517;49.020;12.066;2022-10-31T10:07:24;13.00;99.90
8965;DHT22;4517;49.020;12.066;2022-10-31T10:09:52;13.00;99.90
8965;DHT22;4517;49.020;12.066;2022-10-31T10:18:31;13.40;99.90
8965;DHT22;4517;49.020;12.066;2022-10-31T10:23:37;13.40;99.90
8965;DHT22;4517;49.020;12.066;2022-10-31T10:26:15;13.40;99.90
8965;DHT22;4517;49.020;12.066;2022-10-31T10:28:44;13.60;99.90
8965;DHT22;4517;49.020;12.066;2022-10-31T10:31:16;13.90;99.90
8965;DHT22;4517;49.020;12.066;2022-10-31T10:36:21;14.00;99.90
8965;DHT22;4517;49.020;12.066;2022-10-31T10:38:59;14.10;99.90
8965;DHT22;4517;49.020;12.066;2022-10-31T10:41:30;14.30;99.90
8965;DHT22;4517;49.020;12.066;2022-10-31T10:43:56;14.10;99.90
8965;DHT22;4517;49.020;12.066;2022-10-31T10:46:44;14.20;99.90
8965;DHT22;4517;49.020;12.066;2022-10-31T10:49:49;14.20;99.90
8965;DHT22;4517;49.020;12.066;2022-10-31T10:58:02;14.40;99.90
8965;DHT22;4517;49.020;12.066;2022-10-31T11:00:34;14.30;99.90
8965;DHT22;4517;49.020;12.066;2022-10-31T11:03:01;14.30;99.90
8965;DHT22;4517;49.020;12.066;2022-10-31T11:05:39;14.40;99.90
8965;DHT22;4517;49.020;12.066;2022-10-31T11:08:06;14.30;99.90
8965;DHT22;4517;49.020;12.066;2022-10-31T11:10:33;14.40;99.90
8965;DHT22;4517;49.020;12.066;2022-10-31T11:13:04;14.30;99.90
8965;DHT22;4517;49.020;12.066;2022-10-31T11:15:33;14.40;99.90
8965;DHT22;4517;49.020;12.066;2022-10-31T11:18:00;14.40;99.90
8965;DHT22;4517;49.020;12.066;2022-10-31T11:20:36;14.60;99.90
8965;DHT22;4517;49.020;12.066;2022-10-31T11:23:19;14.70;99.90
8965;DHT22;4517;49.020;12.066;2022-10-31T11:25:49;14.70;99.90
8965;DHT22;4517;49.020;12.066;2022-10-31T11:28:16;14.80;99.90
8965;DHT22;4517;49.020;12.066;2022-10-31T11:30:59;14.90;99.90
8965;DHT22;4517;49.020;12.066;2022-10-31T11:33:46;15.20;99.90
8965;DHT22;4517;49.020;12.066;2022-10-31T11:36:21;15.00;99.90
8965;DHT22;4517;49.020;12.066;2022-10-31T11:38:48;14.90;99.90
8965;DHT22;4517;49.020;12.066;2022-10-31T11:41:17;15.00;99.90
8965;DHT22;4517;49.020;12.066;2022-10-31T11:43:50;14.60;99.90
8965;DHT22;4517;49.020;12.066;2022-10-31T11:46:36;14.10;99.90
8965;DHT22;4517;49.020;12.066;2022-10-31T11:49:04;13.90;99.90
8965;DHT22;4517;49.020;12.066;2022-10-31T11:51:32;13.90;99.90
8965;DHT22;4517;49.020;12.066;2022-10-31T11:53:59;13.90;99.90
8965;DHT22;4517;49.020;12.066;2022-10-31T11:56:37;13.80;99.90
8965;DHT22;4517;49.020;12.066;2022-10-31T11:59:05;13.80;99.90
8965;DHT22;4517;49.020;12.066;2022-10-31T12:01:39;13.70;99.90
8965;DHT22;4517;49.020;12.066;2022-10-31T12:04:10;13.60;99.90
8965;DHT22;4517;49.020;12.066;2022-10-31T12:06:41;13.60;99.90
8965;DHT22;4517;49.020;12.066;2022-10-31T12:09:20;13.60;99.90
8965;DHT22;4517;49.020;12.066;2022-10-31T12:12:03;13.70;99.90
8965;DHT22;4517;49.020;12.066;2022-10-31T12:14:41;13.60;99.90
8965;DHT22;4517;49.020;12.066;2022-10-31T12:17:18;13.60;99.90
8965;DHT22;4517;49.020;12.066;2022-10-31T12:28:42;14.20;99.90
8965;DHT22;4517;49.020;12.066;2022-10-31T12:31:22;14.30;99.90
8965;DHT22;4517;49.020;12.066;2022-10-31T12:36:59;14.50;99.90
8965;DHT22;4517;49.020;12.066;2022-10-31T12:42:58;15.00;99.90
8965;DHT22;4517;49.020;12.066;2022-10-31T12:45:35;15.00;99.90
8965;DHT22;4517;49.020;12.066;2022-10-31T12:48:24;15.20;99.90
8965;DHT22;4517;49.020;12.066;2022-10-31T12:51:17;15.20;99.90
8965;DHT22;4517;49.020;12.066;2022-10-31T12:54:02;15.30;99.90
8965;DHT22;4517;49.020;12.066;2022-10-31T12:56:35;15.20;99.90
8965;DHT22;4517;49.020;12.066;2022-10-31T13:01:57;15.20;99.90
8965;DHT22;4517;49.020;12.066;2022-10-31T13:04:39;15.20;99.90
8965;DHT22;4517;49.020;12.066;2022-10-31T13:07:12;15.20;99.90
8965;DHT22;4517;49.020;12.066;2022-10-31T13:09:45;15.40;99.90
8965;DHT22;4517;49.020;12.066;2022-10-31T13:12:16;15.30;99.90
8965;DHT22;4517;49.020;12.066;2022-10-31T13:14:50;15.30;99.90
8965;DHT22;4517;49.020;12.066;2022-10-31T13:17:41;15.40;99.90
8965;DHT22;4517;49.020;12.066;2022-10-31T13:23:05;15.30;99.90
8965;DHT22;4517;49.020;12.066;2022-10-31T13:25:39;15.30;99.90
8965;DHT22;4517;49.020;12.066;2022-10-31T13:28:35;15.30;99.90
8965;DHT22;4517;49.020;12.066;2022-10-31T13:31:01;15.30;99.90
8965;DHT22;4517;49.020;12.066;2022-10-31T13:33:51;15.20;99.90
8965;DHT22;4517;49.020;12.066;2022-10-31T13:36:43;15.20;99.90
8965;DHT22;4517;49.020;12.066;2022-10-31T13:39:41;15.30;99.90
8965;DHT22;4517;49.020;12.066;2022-10-31T13:42:34;15.20;99.90
8965;DHT22;4517;49.020;12.066;2022-10-31T13:45:21;15.20;99.90
8965;DHT22;4517;49.020;12.066;2022-10-31T13:47:59;15.20;99.90
8965;DHT22;4517;49.020;12.066;2022-10-31T13:50:30;15.20;99.90
8965;DHT22;4517;49.020;12.066;2022-10-31T13:53:20;15.20;99.90
8965;DHT22;4517;49.020;12.066;2022-10-31T13:56:01;15.10;99.90
8965;DHT22;4517;49.020;12.066;2022-10-31T13:58:30;15.20;99.90
8965;DHT22;4517;49.020;12.066;2022-10-31T14:01:15;15.20;99.90
8965;DHT22;4517;49.020;12.066;2022-10-31T14:03:44;15.10;99.90
8965;DHT22;4517;49.020;12.066;2022-10-31T14:06:11;15.00;99.90
8965;DHT22;4517;49.020;12.066;2022-10-31T14:08:41;14.90;99.90
8965;DHT22;4517;49.020;12.066;2022-10-31T14:11:22;14.80;99.90
8965;DHT22;4517;49.020;12.066;2022-10-31T14:13:49;14.80;99.90
8965;DHT22;4517;49.020;12.066;2022-10-31T14:16:23;14.80;99.90
8965;DHT22;4517;49.020;12.066;2022-10-31T14:19:01;14.80;99.90
8965;DHT22;4517;49.020;12.066;2022-10-31T14:21:40;14.80;99.90
8965;DHT22;4517;49.020;12.066;2022-10-31T14:29:49;14.90;99.90
8965;DHT22;4517;49.020;12.066;2022-10-31T14:32:22;14.90;99.90
8965;DHT22;4517;49.020;12.066;2022-10-31T14:40:35;14.80;99.90
8965;DHT22;4517;49.020;12.066;2022-10-31T14:49:11;14.70;99.90
8965;DHT22;4517;49.020;12.066;2022-10-31T14:51:44;14.60;99.90
8965;DHT22;4517;49.020;12.066;2022-10-31T14:54:15;14.60;99.90
8965;DHT22;4517;49.020;12.066;2022-10-31T14:56:54;14.60;99.90
8965;DHT22;4517;49.020;12.066;2022-10-31T14:59:25;14.50;99.90
8965;DHT22;4517;49.020;12.066;2022-10-31T15:02:04;14.50;99.90
8965;DHT22;4517;49.020;12.066;2022-10-31T15:04:35;14.50;99.90
8965;DHT22;4517;49.020;12.066;2022-10-31T15:07:09;14.40;99.90
8965;DHT22;4517;49.020;12.066;2022-10-31T15:09:36;14.40;99.90
8965;DHT22;4517;49.020;12.066;2022-10-31T15:12:26;14.30;99.90
8965;DHT22;4517;49.020;12.066;2022-10-31T15:14:52;14.30;99.90
8965;DHT22;4517;49.020;12.066;2022-10-31T15:17:18;14.20;99.90
8965;DHT22;4517;49.020;12.066;2022-10-31T15:19:44;14.10;99.90
8965;DHT22;4517;49.020;12.066;2022-10-31T15:22:17;14.10;99.90
8965;DHT22;4517;49.020;12.066;2022-10-31T15:24:44;14.00;99.90
8965;DHT22;4517;49.020;12.066;2022-10-31T15:27:15;13.90;99.90
8965;DHT22;4517;49.020;12.066;2022-10-31T15:29:53;13.80;99.90
8965;DHT22;4517;49.020;12.066;2022-10-31T15:32:28;13.70;99.90
8965;DHT22;4517;49.020;12.066;2022-10-31T15:34:55;13.60;99.90
8965;DHT22;4517;49.020;12.066;2022-10-31T15:37:23;13.50;99.90
8965;DHT22;4517;49.020;12.066;2022-10-31T15:39:50;13.40;99.90
8965;DHT22;4517;49.020;12.066;2022-10-31T15:42:33;13.30;99.90
8965;DHT22;4517;49.020;12.066;2022-10-31T15:45:15;13.20;99.90
8965;DHT22;4517;49.020;12.066;2022-10-31T15:47:47;13.20;99.90
8965;DHT22;4517;49.020;12.066;2022-10-31T15:50:36;13.10;99.90
8965;DHT22;4517;49.020;12.066;2022-10-31T15:53:03;12.90;99.90
8965;DHT22;4517;49.020;12.066;2022-10-31T15:55:32;12.80;99.90
8965;DHT22;4517;49.020;12.066;2022-10-31T15:58:03;12.70;99.90
8965;DHT22;4517;49.020;12.066;2022-10-31T16:00:37;12.70;99.90
8965;DHT22;4517;49.020;12.066;2022-10-31T16:11:18;12.30;99.90
8965;DHT22;4517;49.020;12.066;2022-10-31T16:16:18;12.30;99.90
8965;DHT22;4517;49.020;12.066;2022-10-31T16:18:47;12.20;99.90
8965;DHT22;4517;49.020;12.066;2022-10-31T16:21:13;12.20;99.90
8965;DHT22;4517;49.020;12.066;2022-10-31T16:23:44;12.00;99.90
8965;DHT22;4517;49.020;12.066;2022-10-31T16:26:15;12.00;99.90
8965;DHT22;4517;49.020;12.066;2022-10-31T16:28:54;11.90;99.90
8965;DHT22;4517;49.020;12.066;2022-10-31T16:31:28;11.80;99.90
8965;DHT22;4517;49.020;12.066;2022-10-31T16:34:09;11.80;99.90
8965;DHT22;4517;49.020;12.066;2022-10-31T16:36:36;11.80;99.90
8965;DHT22;4517;49.020;12.066;2022-10-31T16:39:04;11.80;99.90
8965;DHT22;4517;49.020;12.066;2022-10-31T16:41:30;12.00;99.90
8965;DHT22;4517;49.020;12.066;2022-10-31T16:43:56;12.10;99.90
8965;DHT22;4517;49.020;12.066;2022-10-31T16:46:25;12.20;99.90
8965;DHT22;4517;49.020;12.066;2022-10-31T16:48:51;12.20;99.90
8965;DHT22;4517;49.020;12.066;2022-10-31T16:51:16;12.10;99.90
8965;DHT22;4517;49.020;12.066;2022-10-31T16:53:42;12.00;99.90
8965;DHT22;4517;49.020;12.066;2022-10-31T16:56:16;11.90;99.90
8965;DHT22;4517;49.020;12.066;2022-10-31T16:58:43;11.80;99.90
8965;DHT22;4517;49.020;12.066;2022-10-31T17:01:11;11.70;99.90
8965;DHT22;4517;49.020;12.066;2022-10-31T17:03:38;11.70;99.90
8965;DHT22;4517;49.020;12.066;2022-10-31T17:06:03;11.70;99.90
8965;DHT22;4517;49.020;12.066;2022-10-31T17:08:29;11.60;99.90
8965;DHT22;4517;49.020;12.066;2022-10-31T17:10:56;11.60;99.90
8965;DHT22;4517;49.020;12.066;2022-10-31T17:13:24;11.50;99.90
8965;DHT22;4517;49.020;12.066;2022-10-31T17:15:59;11.40;99.90
8965;DHT22;4517;49.020;12.066;2022-10-31T17:18:25;11.40;99.90
8965;DHT22;4517;49.020;12.066;2022-10-31T17:20:55;11.60;99.90
8965;DHT22;4517;49.020;12.066;2022-10-31T17:23:22;11.50;99.90
8965;DHT22;4517;49.020;12.066;2022-10-31T17:25:47;11.60;99.90
8965;DHT22;4517;49.020;12.066;2022-10-31T17:28:13;11.60;99.90
8965;DHT22;4517;49.020;12.066;2022-10-31T17:30:40;11.60;99.90
8965;DHT22;4517;49.020;12.066;2022-10-31T17:33:10;11.60;99.90
8965;DHT22;4517;49.020;12.066;2022-10-31T17:35:36;11.50;99.90
8965;DHT22;4517;49.020;12.066;2022-10-31T17:38:01;11.60;99.90
8965;DHT22;4517;49.020;12.066;2022-10-31T17:40:27;11.60;99.90
8965;DHT22;4517;49.020;12.066;2022-10-31T17:42:55;11.50;99.90
8965;DHT22;4517;49.020;12.066;2022-10-31T17:45:23;11.30;99.90
8965;DHT22;4517;49.020;12.066;2022-10-31T17:47:50;11.20;99.90
8965;DHT22;4517;49.020;12.066;2022-10-31T17:50:17;11.00;99.90
8965;DHT22;4517;49.020;12.066;2022-10-31T17:52:43;10.80;99.90
8965;DHT22;4517;49.020;12.066;2022-10-31T17:55:09;10.70;99.90